Calgary, Canada
Current Conditions -  °F | °C
As of 12:00 PM on Saturday 25 Oct 2014 (Local Time) from CYYC Reporting Station
Broken Clouds Broken Clouds  
Wind Chill: 35°   Ceiling: 5000
Heat Index: 41°   Visibility: 40mi
Dew Point: 25°   Wind: 10mph
Humidity: 53%   Direction: 150°SSE
Pressure: 29.85"   Gusts: 17mph
Location:  51.05°N, 114.06°W
Report Text: CYYC 251800Z 15009G15KT 40SM BKN050 05/M04 A2985 RMK SC7 SLP145
Loading
Personal Weather Stations






























Interactive Weather Map
Tropical Storm Tracking
New forecast layout! Learn more

10-Day Weather Forecast

Advertisements
Track Severe Weather on mobile